Diamond Center, Iowa
Current Conditions -  °F | °C
As of 6:15 AM on Thursday 18 Dec 2014 (Local Time) from KCKP Reporting Station
Overcast Overcast  
Wind Chill: 20°   Ceiling: 8000
Heat Index: 20°   Visibility: 10mi
Dew Point: 19°   Wind: 3mph
Humidity: 94%   Direction: 120°ESE
Pressure: 30.25"   Gusts: NA
Location:  42.6502°N, 95.4454°W
Report Text: KCKP 181215Z AUTO 12003KT 10SM SCT075 OVC080 M06/M07 A3025 RMK AO2 T10651073
Loading
Personal Weather Stations






























Interactive Weather Map New forecast layout! Learn more

10-Day Weather Forecast

Advertisements
Track Severe Weather on mobile